Terminal Aerodrome Forecast
Issued by NWS

Home | Current Version | Previous Version | Text Only | Print | Product List | Glossary On
Versions: 1 2 3 4 5 6 7 8 9 10 11 12 13 14 15 16 17 18 19 20 21 22 23 24
000
FTUS45 KLKN 030520
TAFWMC
TAF
KWMC 030520Z 0306/0406 VRB05KT P6SM SCT110
     FM031700 27010G20KT P6SM SCT120
     FM032000 27012G23KT P6SM VCTS SCT100CB
     FM040200 31010KT P6SM SCT080 BKN120=

USA.gov is the U.S. government's official web portal to all federal, state and local government web resources and services.